createdAt,value
2018-02-24T00:00:59.238Z,34.50
2018-02-24T00:03:25.798Z,33.08
2018-02-24T00:05:52.693Z,29.63
2018-02-24T00:08:19.261Z,31.67
2018-02-24T00:10:45.837Z,33.20
2018-02-24T00:13:12.737Z,31.70
2018-02-24T00:15:39.297Z,33.90
2018-02-24T00:18:05.858Z,34.10
2018-02-24T00:20:32.405Z,31.40
2018-02-24T00:22:58.975Z,32.47
2018-02-24T00:25:25.529Z,35.72
2018-02-24T00:27:52.057Z,30.52
2018-02-24T00:30:18.619Z,30.42
2018-02-24T00:32:45.558Z,33.60
2018-02-24T00:35:12.086Z,34.17
2018-02-24T00:37:38.650Z,37.60
2018-02-24T00:40:05.209Z,35.25
2018-02-24T00:42:31.736Z,31.62
2018-02-24T00:44:58.298Z,36.42
2018-02-24T00:47:24.858Z,35.53
2018-02-24T00:49:51.438Z,30.05
2018-02-24T00:52:18.006Z,33.05
2018-02-24T00:54:44.581Z,33.40
2018-02-24T00:57:11.221Z,34.10
2018-02-24T00:59:37.785Z,30.48
2018-02-24T01:02:04.393Z,31.75
2018-02-24T01:04:30.973Z,34.75
2018-02-24T01:06:57.546Z,33.35
2018-02-24T01:09:24.473Z,32.33
2018-02-24T01:11:51.013Z,37.72
2018-02-24T01:14:17.574Z,32.92
2018-02-24T01:16:44.149Z,34.08
2018-02-24T01:19:11.081Z,33.47
2018-02-24T01:21:37.642Z,36.42
2018-02-24T01:24:04.214Z,36.72
2018-02-24T01:26:30.737Z,36.67
2018-02-24T01:28:57.344Z,34.83
2018-02-24T01:31:23.909Z,39.85
2018-02-24T01:33:50.441Z,41.83
2018-02-24T01:36:17.013Z,35.75
2018-02-24T01:38:43.577Z,38.75
2018-02-24T01:41:10.106Z,43.42
2018-02-24T01:43:36.674Z,32.35
2018-02-24T01:46:03.243Z,38.55
2018-02-24T01:48:29.801Z,37.05
2018-02-24T01:50:56.367Z,38.50
2018-02-24T01:53:22.929Z,39.28
2018-02-24T01:55:49.462Z,34.63
2018-02-24T01:58:16.049Z,37.53
2018-02-24T02:00:42.949Z,36.00
2018-02-24T02:03:09.481Z,35.85
2018-02-24T02:05:36.065Z,35.85
2018-02-24T02:08:02.669Z,35.08
2018-02-24T02:10:29.213Z,34.30
2018-02-24T02:12:56.153Z,36.88
2018-02-24T02:15:22.709Z,37.33
2018-02-24T02:17:49.609Z,36.92
2018-02-24T02:20:16.209Z,36.53
2018-02-24T02:22:43.132Z,38.38
2018-02-24T02:25:09.662Z,34.08
2018-02-24T02:27:36.225Z,33.42
2018-02-24T02:30:02.863Z,34.28
2018-02-24T02:32:29.398Z,36.20
2018-02-24T02:34:55.954Z,32.70
2018-02-24T02:37:22.510Z,38.78
2018-02-24T02:39:49.042Z,32.50
2018-02-24T02:42:15.602Z,40.53
2018-02-24T02:44:42.171Z,38.17
2018-02-24T02:47:08.701Z,33.58
2018-02-24T02:49:35.263Z,36.63
2018-02-24T02:52:01.841Z,35.92
2018-02-24T02:54:28.741Z,36.42
2018-02-24T02:56:55.311Z,36.17
2018-02-24T02:59:21.910Z,31.60
2018-02-24T03:01:48.461Z,38.53
2018-02-24T03:04:15.018Z,36.10
2018-02-24T03:06:41.581Z,34.55
2018-02-24T03:09:08.157Z,35.08
2018-02-24T03:11:34.721Z,33.63
2018-02-24T03:14:01.654Z,35.58
2018-02-24T03:16:28.191Z,32.92
2018-02-24T03:18:54.761Z,34.38
2018-02-24T03:21:21.317Z,36.67
2018-02-24T03:23:48.216Z,29.05
2018-02-24T03:26:14.769Z,38.92
2018-02-24T03:28:41.334Z,35.85
2018-02-24T03:31:07.883Z,35.50
2018-02-24T03:33:34.449Z,31.80
2018-02-24T03:36:01.014Z,38.35
2018-02-24T03:38:27.917Z,38.33
2018-02-24T03:40:54.481Z,37.50
2018-02-24T03:43:21.041Z,41.28
2018-02-24T03:45:51.501Z,37.10
2018-02-24T03:48:18.432Z,40.30
2018-02-24T03:50:45.038Z,35.67
2018-02-24T03:53:11.617Z,35.47
2018-02-24T03:55:38.216Z,42.45
2018-02-24T03:58:05.177Z,38.92
2018-02-24T04:00:32.065Z,36.20
2018-02-24T04:02:58.625Z,37.75
2018-02-24T04:05:25.637Z,48.40
2018-02-24T04:07:52.530Z,36.75
2018-02-24T04:10:19.098Z,38.95
2018-02-24T04:12:45.657Z,34.50
2018-02-24T04:15:12.226Z,35.50
2018-02-24T04:17:39.153Z,37.13
2018-02-24T04:20:05.734Z,42.90
2018-02-24T04:22:32.629Z,38.45
2018-02-24T04:24:59.205Z,36.78
2018-02-24T04:27:25.762Z,37.60
2018-02-24T04:29:52.285Z,36.45
2018-02-24T04:32:18.853Z,37.67
2018-02-24T04:34:45.422Z,39.67
2018-02-24T04:37:12.316Z,37.97
2018-02-24T04:39:38.866Z,39.35
2018-02-24T04:42:05.455Z,35.83
2018-02-24T04:44:32.031Z,35.22
2018-02-24T04:46:58.942Z,35.33
2018-02-24T04:49:25.497Z,34.05
2018-02-24T04:51:52.046Z,38.65
2018-02-24T04:54:18.617Z,38.47
2018-02-24T04:56:45.541Z,37.47
2018-02-24T04:59:12.190Z,36.03
2018-02-24T05:01:38.759Z,35.08
2018-02-24T05:04:05.690Z,35.03
2018-02-24T05:06:32.217Z,42.15
2018-02-24T05:08:58.789Z,33.60
2018-02-24T05:11:25.345Z,34.85
2018-02-24T05:13:51.869Z,34.50
2018-02-24T05:16:18.429Z,37.70
2018-02-24T05:18:44.990Z,36.80
2018-02-24T05:21:11.514Z,35.65
2018-02-24T05:23:38.087Z,33.25
2018-02-24T05:26:04.646Z,31.45
2018-02-24T05:28:31.555Z,37.47
2018-02-24T05:30:58.125Z,36.90
2018-02-24T05:33:25.080Z,35.17
2018-02-24T05:35:51.602Z,34.45
2018-02-24T05:38:18.159Z,44.08
2018-02-24T05:40:44.718Z,32.33
2018-02-24T05:43:11.249Z,37.70
2018-02-24T05:45:37.808Z,34.22
2018-02-24T05:48:04.364Z,36.60
2018-02-24T05:50:30.885Z,35.55
2018-02-24T05:52:57.717Z,33.55
2018-02-24T05:55:24.302Z,36.55
2018-02-24T05:57:50.876Z,34.85
2018-02-24T06:00:17.513Z,37.42
2018-02-24T06:02:44.081Z,33.30
2018-02-24T06:05:10.992Z,34.83
2018-02-24T06:07:37.552Z,32.83
2018-02-24T06:10:04.116Z,35.72
2018-02-24T06:12:30.649Z,43.40
2018-02-24T06:14:57.242Z,35.35
2018-02-24T06:17:23.833Z,36.53
2018-02-24T06:19:50.373Z,42.33
2018-02-24T06:22:17.013Z,34.83
2018-02-24T06:24:43.585Z,33.03
2018-02-24T06:27:10.166Z,35.67
2018-02-24T06:29:37.157Z,32.53
2018-02-24T06:32:03.790Z,36.50
2018-02-24T06:34:30.365Z,35.13
2018-02-24T06:36:56.926Z,35.33
2018-02-24T06:39:23.538Z,30.88
2018-02-24T06:41:50.099Z,34.42
2018-02-24T06:44:16.674Z,32.70
2018-02-24T06:46:43.279Z,36.42
2018-02-24T06:49:09.811Z,33.08
2018-02-24T06:51:36.742Z,34.80
2018-02-24T06:54:03.305Z,29.30
2018-02-24T06:56:30.209Z,30.05
2018-02-24T06:58:56.797Z,30.12
2018-02-24T07:01:23.364Z,27.42
2018-02-24T07:03:50.275Z,34.30
2018-02-24T07:06:16.838Z,31.08
2018-02-24T07:08:43.402Z,34.60
2018-02-24T07:11:10.303Z,33.30
2018-02-24T07:13:36.871Z,32.35
2018-02-24T07:16:03.434Z,32.05
2018-02-24T07:18:29.968Z,29.42
2018-02-24T07:20:56.538Z,34.92
2018-02-24T07:23:23.101Z,30.73
2018-02-24T07:25:50.002Z,29.87
2018-02-24T07:28:16.626Z,33.88
2018-02-24T07:30:43.212Z,35.05
2018-02-24T07:33:09.745Z,29.08
2018-02-24T07:35:36.682Z,25.95
2018-02-24T07:38:03.270Z,30.58
2018-02-24T07:40:29.846Z,27.60
2018-02-24T07:42:56.394Z,29.30
2018-02-24T07:45:23.338Z,28.75
2018-02-24T07:47:49.864Z,34.25
2018-02-24T07:50:16.429Z,30.33
2018-02-24T07:52:43.014Z,30.08
2018-02-24T07:55:09.549Z,30.12
2018-02-24T07:57:36.476Z,27.40
2018-02-24T08:00:03.101Z,27.90
2018-02-24T08:02:29.726Z,30.27
2018-02-24T08:04:56.289Z,27.05
2018-02-24T08:07:22.861Z,29.70
2018-02-24T08:09:49.402Z,26.35
2018-02-24T08:12:15.971Z,29.67
2018-02-24T08:14:42.538Z,27.95
2018-02-24T08:17:09.442Z,46.45
2018-02-24T08:19:36.029Z,29.52
2018-02-24T08:22:02.965Z,34.22
2018-02-24T08:24:29.518Z,31.48
2018-02-24T08:26:56.130Z,30.50
2018-02-24T08:29:22.840Z,25.92
2018-02-24T08:31:49.762Z,26.70
2018-02-24T08:34:16.338Z,28.48
2018-02-24T08:36:43.278Z,29.37
2018-02-24T08:39:09.809Z,24.70
2018-02-24T08:41:36.422Z,26.30
2018-02-24T08:44:02.984Z,28.75
2018-02-24T08:46:29.510Z,27.20
2018-02-24T08:48:56.078Z,25.73
2018-02-24T08:51:22.652Z,23.95
2018-02-24T08:53:49.221Z,25.50
2018-02-24T08:56:16.150Z,27.17
2018-02-24T08:58:42.750Z,26.25
2018-02-24T09:01:09.314Z,25.75
2018-02-24T09:03:35.942Z,25.12
2018-02-24T09:06:02.889Z,24.35
2018-02-24T09:08:29.785Z,27.48
2018-02-24T09:10:56.350Z,24.87
2018-02-24T09:13:22.926Z,24.20
2018-02-24T09:15:49.838Z,27.58
2018-02-24T09:18:16.394Z,31.02
2018-02-24T09:20:42.958Z,26.37
2018-02-24T09:23:09.489Z,24.30
2018-02-24T09:25:36.056Z,23.23
2018-02-24T09:28:02.654Z,30.50
2018-02-24T09:30:29.189Z,28.30
2018-02-24T09:32:56.118Z,27.80
2018-02-24T09:35:22.677Z,23.52
2018-02-24T09:37:49.587Z,27.62
2018-02-24T09:40:16.141Z,24.27
2018-02-24T09:42:42.718Z,27.35
2018-02-24T09:45:09.277Z,27.90
2018-02-24T09:47:35.850Z,27.70
2018-02-24T09:50:02.432Z,23.75
2018-02-24T09:52:28.961Z,23.55
2018-02-24T09:54:55.513Z,23.80
2018-02-24T09:57:22.086Z,23.87
2018-02-24T09:59:48.704Z,20.67
2018-02-24T10:02:15.277Z,20.90
2018-02-24T10:04:41.845Z,22.08
2018-02-24T10:07:08.749Z,19.65
2018-02-24T10:09:35.306Z,19.10
2018-02-24T10:12:01.861Z,18.77
2018-02-24T10:14:28.389Z,22.15
2018-02-24T10:16:54.936Z,22.75
2018-02-24T10:19:21.497Z,20.08
2018-02-24T10:21:48.114Z,21.30
2018-02-24T10:24:14.675Z,19.17
2018-02-24T10:26:41.247Z,17.70
2018-02-24T10:29:14.892Z,19.90
2018-02-24T10:31:41.830Z,19.00
2018-02-24T10:34:08.370Z,21.17
2018-02-24T10:36:34.938Z,21.67
2018-02-24T10:39:01.510Z,23.73
2018-02-24T10:41:28.415Z,20.12
2018-02-24T10:43:54.982Z,33.50
2018-02-24T10:46:21.549Z,22.95
2018-02-24T10:48:48.554Z,19.23
2018-02-24T10:51:15.166Z,19.12
2018-02-24T10:53:42.101Z,19.70
2018-02-24T10:56:08.931Z,22.17
2018-02-24T10:58:35.520Z,21.42
2018-02-24T11:01:02.654Z,18.85
2018-02-24T11:03:29.191Z,18.58
2018-02-24T11:05:55.831Z,18.80
2018-02-24T11:08:22.580Z,18.17
2018-02-24T11:10:49.492Z,19.58
2018-02-24T11:13:16.102Z,16.60
2018-02-24T11:15:42.736Z,19.23
2018-02-24T11:18:09.345Z,19.87
2018-02-24T11:20:36.024Z,23.50
2018-02-24T11:23:02.670Z,19.05
2018-02-24T11:25:29.337Z,19.87
2018-02-24T11:27:55.987Z,17.48
2018-02-24T11:30:22.603Z,14.95
2018-02-24T11:32:49.133Z,18.33
2018-02-24T11:35:15.696Z,18.10
2018-02-24T11:37:42.294Z,16.50
2018-02-24T11:40:08.842Z,15.35
2018-02-24T11:42:35.462Z,15.95
2018-02-24T11:45:02.026Z,17.10
2018-02-24T11:47:28.584Z,14.38
2018-02-24T11:49:55.146Z,15.70
2018-02-24T11:52:22.104Z,13.25
2018-02-24T11:54:49.007Z,19.10
2018-02-24T11:57:15.698Z,16.10
2018-02-24T11:59:42.313Z,15.60
2018-02-24T12:02:08.851Z,20.12
2018-02-24T12:04:35.419Z,15.70
2018-02-24T12:07:01.990Z,18.10
2018-02-24T12:09:28.582Z,14.95
2018-02-24T12:11:55.197Z,16.90
2018-02-24T12:14:22.129Z,13.90
2018-02-24T12:16:48.653Z,16.17
2018-02-24T12:19:15.225Z,14.18
2018-02-24T12:21:42.202Z,14.20
2018-02-24T12:24:09.142Z,13.65
2018-02-24T12:26:35.719Z,13.68
2018-02-24T12:29:02.294Z,15.05
2018-02-24T12:31:28.857Z,11.38
2018-02-24T12:33:55.418Z,13.15
2018-02-24T12:36:21.990Z,14.95
2018-02-24T12:38:48.570Z,14.93
2018-02-24T12:41:15.150Z,14.73
2018-02-24T12:43:41.730Z,13.07
2018-02-24T12:46:08.638Z,11.80
2018-02-24T12:48:35.194Z,13.77
2018-02-24T12:51:01.764Z,12.10
2018-02-24T12:53:28.562Z,11.30
2018-02-24T12:55:55.519Z,12.85
2018-02-24T12:58:22.177Z,14.07
2018-02-24T13:00:55.892Z,12.55
2018-02-24T13:03:22.456Z,12.45
2018-02-24T13:05:49.007Z,13.52
2018-02-24T13:08:15.582Z,14.27
2018-02-24T13:10:42.152Z,14.50
2018-02-24T13:13:09.059Z,14.18
2018-02-24T13:15:35.626Z,12.90
2018-02-24T13:18:02.185Z,13.98
2018-02-24T13:20:28.714Z,12.02
2018-02-24T13:22:55.318Z,13.05
2018-02-24T13:25:21.948Z,17.42
2018-02-24T13:27:48.854Z,16.33
2018-02-24T13:30:15.414Z,13.88
2018-02-24T13:32:42.021Z,14.25
2018-02-24T13:35:08.557Z,19.98
2018-02-24T13:37:35.553Z,14.45
2018-02-24T13:40:02.137Z,14.75
2018-02-24T13:42:28.673Z,16.52
2018-02-24T13:44:55.235Z,16.45
2018-02-24T13:47:21.850Z,16.80
2018-02-24T13:49:48.386Z,14.52
2018-02-24T13:52:14.950Z,16.15
2018-02-24T13:54:41.514Z,18.90
2018-02-24T13:57:08.047Z,20.27
2018-02-24T13:59:34.673Z,16.98
2018-02-24T14:02:01.238Z,15.15
2018-02-24T14:04:27.774Z,14.85
2018-02-24T14:06:54.334Z,17.23
2018-02-24T14:09:20.897Z,14.98
2018-02-24T14:11:47.542Z,14.15
2018-02-24T14:14:14.097Z,14.57
2018-02-24T14:16:40.666Z,16.55
2018-02-24T14:19:07.577Z,17.42
2018-02-24T14:21:34.134Z,14.20
2018-02-24T14:24:07.654Z,16.87
2018-02-24T14:26:34.222Z,14.68
2018-02-24T14:29:01.154Z,15.77
2018-02-24T14:31:27.714Z,13.77
2018-02-24T14:33:54.289Z,16.75
2018-02-24T14:36:21.224Z,13.62
2018-02-24T14:38:47.750Z,13.95
2018-02-24T14:41:14.322Z,16.80
2018-02-24T14:43:41.252Z,11.43
2018-02-24T14:46:07.783Z,13.30
2018-02-24T14:48:34.610Z,12.88
2018-02-24T14:51:01.303Z,15.07
2018-02-24T14:53:27.850Z,16.80
2018-02-24T14:55:54.422Z,15.70
2018-02-24T14:58:21.004Z,14.45
2018-02-24T15:00:47.774Z,13.07
2018-02-24T15:03:14.350Z,14.90
2018-02-24T15:05:40.909Z,12.75
2018-02-24T15:08:07.458Z,12.05
2018-02-24T15:10:34.037Z,14.13
2018-02-24T15:13:00.649Z,13.48
2018-02-24T15:15:27.189Z,14.82
2018-02-24T15:17:53.793Z,15.02
2018-02-24T15:20:20.402Z,17.40
2018-02-24T15:22:46.950Z,16.42
2018-02-24T15:25:13.953Z,17.35
2018-02-24T15:27:40.575Z,16.85
2018-02-24T15:30:07.490Z,14.15
2018-02-24T15:32:34.110Z,14.93
2018-02-24T15:35:00.675Z,13.60
2018-02-24T15:37:27.253Z,12.57
2018-02-24T15:39:53.849Z,13.38
2018-02-24T15:42:20.430Z,25.08
2018-02-24T15:44:46.978Z,21.10
2018-02-24T15:47:13.562Z,16.55
2018-02-24T15:49:41.362Z,14.63
2018-02-24T15:52:08.811Z,14.57
2018-02-24T15:54:35.778Z,13.50
2018-02-24T15:57:02.355Z,13.27
2018-02-24T15:59:28.906Z,13.30
2018-02-24T16:01:55.533Z,13.02
2018-02-24T16:04:22.097Z,17.02
2018-02-24T16:06:48.637Z,13.98
2018-02-24T16:09:15.339Z,15.40
2018-02-24T16:11:42.146Z,14.15
2018-02-24T16:14:08.703Z,16.15
2018-02-24T16:16:35.322Z,13.73
2018-02-24T16:19:01.938Z,14.82
2018-02-24T16:21:28.850Z,13.15
2018-02-24T16:23:55.417Z,15.05
2018-02-24T16:26:22.034Z,11.10
2018-02-24T16:28:48.562Z,13.60
2018-02-24T16:31:15.143Z,14.10
2018-02-24T16:33:41.721Z,10.30
2018-02-24T16:36:08.275Z,12.10
2018-02-24T16:38:34.841Z,13.65
2018-02-24T16:41:01.786Z,13.25
2018-02-24T16:43:28.688Z,12.77
2018-02-24T16:45:55.265Z,11.93
2018-02-24T16:48:21.830Z,11.40
2018-02-24T16:50:48.362Z,12.65
2018-02-24T16:53:15.042Z,11.32
2018-02-24T16:55:41.990Z,12.10
2018-02-24T16:58:08.918Z,10.50
2018-02-24T17:00:35.518Z,13.25
2018-02-24T17:03:02.087Z,9.82
2018-02-24T17:05:35.530Z,11.57
2018-02-24T17:08:02.142Z,11.77
2018-02-24T17:10:28.661Z,12.20
2018-02-24T17:12:55.585Z,12.27
2018-02-24T17:15:22.150Z,12.85
2018-02-24T17:17:49.055Z,10.70
2018-02-24T17:20:15.616Z,12.15
2018-02-24T17:22:42.230Z,9.70
2018-02-24T17:25:08.870Z,13.45
2018-02-24T17:27:35.462Z,11.73
2018-02-24T17:30:02.025Z,16.95
2018-02-24T17:32:28.588Z,15.75
2018-02-24T17:34:55.526Z,16.85
2018-02-24T17:37:22.141Z,16.20
2018-02-24T17:39:48.673Z,14.40
2018-02-24T17:42:15.285Z,18.98
2018-02-24T17:44:48.862Z,16.90
2018-02-24T17:47:15.433Z,14.05
2018-02-24T17:49:41.998Z,18.23
2018-02-24T17:52:08.893Z,16.95
2018-02-24T17:54:35.467Z,18.33
2018-02-24T17:57:02.032Z,15.07
2018-02-24T17:59:28.570Z,13.50
2018-02-24T18:01:55.162Z,16.55
2018-02-24T18:04:21.789Z,15.77
2018-02-24T18:06:48.698Z,19.17
2018-02-24T18:09:15.260Z,15.30
2018-02-24T18:11:41.818Z,13.80
2018-02-24T18:14:08.351Z,13.32
2018-02-24T18:16:34.906Z,19.10
2018-02-24T18:19:01.478Z,21.25
2018-02-24T18:21:28.009Z,18.20
2018-02-24T18:23:54.583Z,18.35
2018-02-24T18:26:21.518Z,18.30
2018-02-24T18:28:48.054Z,14.70
2018-02-24T18:31:14.622Z,17.50
2018-02-24T18:33:41.221Z,21.20
2018-02-24T18:36:07.749Z,17.75
2018-02-24T18:38:34.370Z,18.10
2018-02-24T18:41:01.306Z,18.50
2018-02-24T18:43:27.881Z,19.52
2018-02-24T18:45:54.861Z,16.62
2018-02-24T18:48:21.481Z,18.87
2018-02-24T18:50:48.054Z,19.15
2018-02-24T18:53:14.633Z,16.35
2018-02-24T18:55:41.286Z,18.10
2018-02-24T18:58:07.850Z,15.15
2018-02-24T19:00:34.422Z,14.98
2018-02-24T19:03:01.035Z,18.85
2018-02-24T19:05:27.577Z,13.25
2018-02-24T19:07:54.203Z,13.02
2018-02-24T19:10:20.797Z,18.05
2018-02-24T19:12:47.338Z,14.10
2018-02-24T19:15:13.905Z,10.45
2018-02-24T19:17:40.532Z,14.38
2018-02-24T19:20:07.242Z,15.73
2018-02-24T19:22:33.836Z,13.20
2018-02-24T19:25:01.878Z,14.55
2018-02-24T19:27:28.418Z,12.55
2018-02-24T19:29:55.423Z,14.38
2018-02-24T19:32:22.058Z,15.65
2018-02-24T19:34:48.716Z,12.48
2018-02-24T19:37:15.414Z,11.48
2018-02-24T19:39:42.854Z,12.05
2018-02-24T19:42:09.538Z,13.32
2018-02-24T19:44:36.496Z,12.00
2018-02-24T19:47:03.062Z,10.73
2018-02-24T19:49:29.670Z,12.35
2018-02-24T19:51:56.631Z,14.80
2018-02-24T19:54:23.566Z,14.63
2018-02-24T19:56:50.092Z,13.05
2018-02-24T19:59:16.922Z,12.90
2018-02-24T20:01:43.527Z,10.52
2018-02-24T20:04:10.479Z,9.85
2018-02-24T20:06:38.326Z,10.90
2018-02-24T20:09:04.942Z,10.90
2018-02-24T20:11:31.537Z,15.32
2018-02-24T20:13:58.114Z,10.75
2018-02-24T20:16:25.658Z,11.77
2018-02-24T20:18:52.234Z,11.80
2018-02-24T20:21:18.886Z,9.75
2018-02-24T20:23:45.898Z,11.70
2018-02-24T20:26:12.729Z,9.10
2018-02-24T20:28:39.297Z,8.50
2018-02-24T20:31:05.877Z,8.57
2018-02-24T20:33:32.790Z,12.90
2018-02-24T20:36:00.407Z,12.43
2018-02-24T20:38:27.356Z,9.52
2018-02-24T20:40:54.267Z,8.50
2018-02-24T20:43:20.920Z,7.53
2018-02-24T20:45:47.526Z,7.75
2018-02-24T20:48:14.450Z,7.62
2018-02-24T20:50:41.398Z,8.82
2018-02-24T20:53:08.093Z,9.02
2018-02-24T20:55:36.031Z,9.57
2018-02-24T20:58:04.495Z,7.93
2018-02-24T21:00:31.027Z,10.35
2018-02-24T21:02:57.641Z,8.20
2018-02-24T21:05:24.620Z,7.45
2018-02-24T21:07:51.194Z,10.48
2018-02-24T21:10:18.583Z,6.12
2018-02-24T21:12:45.146Z,6.55
2018-02-24T21:15:11.718Z,46.50
2018-02-24T21:17:38.621Z,8.50
2018-02-24T21:20:05.249Z,8.65
2018-02-24T21:22:32.658Z,8.57
2018-02-24T21:24:59.254Z,7.32
2018-02-24T21:27:25.849Z,6.78
2018-02-24T21:29:52.798Z,5.90
2018-02-24T21:32:19.609Z,7.12
2018-02-24T21:34:46.301Z,7.43
2018-02-24T21:37:12.869Z,10.48
2018-02-24T21:39:39.449Z,7.22
2018-02-24T21:42:06.013Z,8.90
2018-02-24T21:44:32.580Z,7.10
2018-02-24T21:46:59.110Z,9.18
2018-02-24T21:49:25.677Z,7.28
2018-02-24T21:51:52.278Z,6.15
2018-02-24T21:54:18.819Z,10.05
2018-02-24T21:56:45.541Z,6.35
2018-02-24T21:59:12.471Z,6.90
2018-02-24T22:01:39.021Z,8.13
2018-02-24T22:04:05.659Z,5.57
2018-02-24T22:06:32.317Z,9.10
2018-02-24T22:08:58.866Z,5.47
2018-02-24T22:11:25.550Z,6.72
2018-02-24T22:13:52.202Z,8.35
2018-02-24T22:16:18.741Z,4.45
2018-02-24T22:18:45.680Z,4.80
2018-02-24T22:21:12.259Z,5.65
2018-02-24T22:23:38.811Z,6.62
2018-02-24T22:26:05.434Z,6.53
2018-02-24T22:28:32.168Z,5.45
2018-02-24T22:30:58.794Z,6.40
2018-02-24T22:33:25.361Z,6.55
2018-02-24T22:35:51.937Z,4.30
2018-02-24T22:38:18.853Z,6.37
2018-02-24T22:40:45.413Z,4.72
2018-02-24T22:43:12.010Z,4.40
2018-02-24T22:45:38.533Z,4.62
2018-02-24T22:48:11.619Z,5.28
2018-02-24T22:50:38.185Z,4.68
2018-02-24T22:53:05.081Z,5.18
2018-02-24T22:55:31.646Z,4.00
2018-02-24T22:57:58.206Z,4.32
2018-02-24T23:00:28.901Z,4.97
2018-02-24T23:02:55.545Z,4.43
2018-02-24T23:05:22.174Z,6.10
2018-02-24T23:07:49.074Z,4.90
2018-02-24T23:10:15.649Z,4.10
2018-02-24T23:12:42.622Z,5.50
2018-02-24T23:15:09.158Z,4.10
2018-02-24T23:17:35.734Z,5.75
2018-02-24T23:20:02.729Z,5.80
2018-02-24T23:22:29.258Z,5.05
2018-02-24T23:24:55.823Z,3.92
2018-02-24T23:27:22.389Z,4.70
2018-02-24T23:29:48.921Z,4.87
2018-02-24T23:32:15.477Z,5.50
2018-02-24T23:34:42.116Z,4.47
2018-02-24T23:37:08.666Z,7.25
2018-02-24T23:39:35.274Z,5.57
2018-02-24T23:42:02.246Z,5.70
2018-02-24T23:44:28.822Z,5.05
2018-02-24T23:46:55.379Z,5.43
2018-02-24T23:49:21.961Z,7.03
2018-02-24T23:51:48.867Z,4.80
2018-02-24T23:54:15.438Z,4.87
2018-02-24T23:56:42.006Z,6.82
2018-02-24T23:59:08.906Z,4.70
